createdAt,value
2019-05-29T00:00:18.253Z,69.78
2019-05-29T00:02:46.794Z,69.78
2019-05-29T00:05:15.304Z,70.22
2019-05-29T00:07:43.932Z,69.92
2019-05-29T00:10:12.515Z,69.82
2019-05-29T00:12:40.917Z,70.16
2019-05-29T00:15:10.384Z,69.97
2019-05-29T00:17:41.553Z,70.15
2019-05-29T00:20:10.543Z,70.67
2019-05-29T00:22:39.000Z,70.42
2019-05-29T00:25:08.549Z,70.42
2019-05-29T00:27:37.008Z,70.60
2019-05-29T00:30:06.921Z,71.42
2019-05-29T00:32:35.744Z,71.18
2019-05-29T00:35:06.473Z,70.97
2019-05-29T00:37:34.875Z,70.92
2019-05-29T00:40:05.209Z,70.86
2019-05-29T00:42:33.606Z,71.29
2019-05-29T00:45:02.029Z,71.28
2019-05-29T00:47:30.449Z,71.37
2019-05-29T00:49:59.095Z,71.70
2019-05-29T00:52:27.489Z,71.44
2019-05-29T00:54:56.117Z,71.18
2019-05-29T00:57:24.749Z,71.23
2019-05-29T00:59:53.204Z,71.23
2019-05-29T01:02:21.826Z,70.75
2019-05-29T01:04:50.232Z,70.91
2019-05-29T01:07:18.622Z,71.48
2019-05-29T01:09:47.026Z,71.17
2019-05-29T01:12:15.476Z,71.17
2019-05-29T01:14:50.024Z,71.15
2019-05-29T01:17:14.177Z,70.91
2019-05-29T01:19:42.563Z,70.91
2019-05-29T01:22:12.243Z,71.45
2019-05-29T01:24:40.668Z,71.45
2019-05-29T01:27:09.091Z,71.72
2019-05-29T01:29:37.491Z,71.91
2019-05-29T01:32:05.921Z,71.94
2019-05-29T01:34:34.305Z,71.80
2019-05-29T01:37:02.711Z,71.80
2019-05-29T01:39:31.405Z,72.33
2019-05-29T01:41:59.815Z,72.33
2019-05-29T01:44:28.201Z,72.40
2019-05-29T01:46:56.606Z,72.77
2019-05-29T01:49:24.988Z,72.79
2019-05-29T01:51:53.403Z,72.79
2019-05-29T01:54:21.797Z,73.41
2019-05-29T01:56:50.204Z,73.22
2019-05-29T01:59:19.682Z,73.53
2019-05-29T02:01:48.275Z,74.36
2019-05-29T02:04:17.834Z,74.36
2019-05-29T02:06:46.272Z,74.99
2019-05-29T02:09:15.871Z,74.99
2019-05-29T02:11:44.251Z,75.05
2019-05-29T02:14:12.647Z,74.93
2019-05-29T02:16:41.061Z,75.28
2019-05-29T02:19:09.452Z,75.28
2019-05-29T02:21:38.072Z,75.37
2019-05-29T02:24:06.481Z,75.18
2019-05-29T02:26:34.882Z,75.19
2019-05-29T02:29:03.349Z,75.19
2019-05-29T02:31:31.767Z,75.07
2019-05-29T02:34:00.409Z,74.98
2019-05-29T02:36:28.810Z,75.02
2019-05-29T02:38:57.194Z,75.17
2019-05-29T02:41:27.934Z,75.19
2019-05-29T02:43:56.198Z,75.19
2019-05-29T02:46:26.510Z,75.45
2019-05-29T02:48:54.719Z,75.45
2019-05-29T02:51:24.250Z,75.44
2019-05-29T02:53:52.723Z,75.47
2019-05-29T02:56:22.942Z,75.51
2019-05-29T02:58:51.497Z,75.69
2019-05-29T03:01:21.554Z,75.69
2019-05-29T03:03:50.526Z,75.75
2019-05-29T03:06:18.962Z,75.98
2019-05-29T03:08:47.848Z,75.81
2019-05-29T03:11:16.242Z,75.81
2019-05-29T03:13:44.705Z,76.09
2019-05-29T03:16:13.451Z,76.09
2019-05-29T03:18:41.807Z,76.37
2019-05-29T03:21:10.217Z,76.79
2019-05-29T03:23:38.628Z,76.79
2019-05-29T03:26:07.102Z,76.83
2019-05-29T03:28:35.483Z,77.05
2019-05-29T03:31:04.423Z,77.05
2019-05-29T03:33:48.264Z,76.59
2019-05-29T03:36:09.793Z,76.79
2019-05-29T03:38:38.648Z,76.99
2019-05-29T03:41:07.068Z,77.06
2019-05-29T03:43:36.136Z,77.06
2019-05-29T03:46:29.198Z,77.03
2019-05-29T03:48:42.004Z,76.87
2019-05-29T03:51:10.718Z,76.76
2019-05-29T03:53:39.406Z,76.76
2019-05-29T03:56:07.799Z,76.71
2019-05-29T03:58:37.769Z,76.66
2019-05-29T04:01:06.329Z,76.66
2019-05-29T04:03:35.691Z,76.68
2019-05-29T04:06:05.524Z,76.64
2019-05-29T04:08:35.523Z,76.64
2019-05-29T04:11:04.089Z,76.78
2019-05-29T04:13:34.107Z,76.68
2019-05-29T04:16:03.697Z,76.65
2019-05-29T04:18:35.815Z,76.65
2019-05-29T04:21:06.238Z,76.83
2019-05-29T04:23:36.289Z,76.79
2019-05-29T04:26:04.878Z,76.79
2019-05-29T04:28:34.878Z,76.85
2019-05-29T04:31:03.594Z,77.04
2019-05-29T04:33:32.605Z,77.04
2019-05-29T04:36:01.735Z,76.99
2019-05-29T04:38:31.157Z,77.02
2019-05-29T04:41:00.212Z,77.18
2019-05-29T04:43:28.902Z,77.04
2019-05-29T04:45:57.748Z,76.98
2019-05-29T04:48:34.015Z,77.20
2019-05-29T04:51:10.835Z,77.20
2019-05-29T04:53:42.916Z,77.08
2019-05-29T04:56:11.035Z,76.81
2019-05-29T04:58:39.443Z,76.37
2019-05-29T05:01:14.890Z,75.85
2019-05-29T05:03:53.843Z,75.07
2019-05-29T05:06:22.291Z,74.77
2019-05-29T05:08:50.687Z,74.47
2019-05-29T05:11:19.095Z,74.47
2019-05-29T05:13:48.541Z,74.12
2019-05-29T05:16:16.979Z,74.12
2019-05-29T05:18:45.864Z,73.84
2019-05-29T05:21:14.590Z,73.04
2019-05-29T05:23:43.544Z,72.63
2019-05-29T05:26:12.125Z,71.40
2019-05-29T05:28:43.615Z,71.38
2019-05-29T05:31:10.994Z,70.56
2019-05-29T05:33:39.378Z,70.56
2019-05-29T05:36:07.773Z,70.32
2019-05-29T05:38:36.808Z,70.74
2019-05-29T05:41:05.319Z,69.85
2019-05-29T05:43:34.653Z,70.08
2019-05-29T05:46:03.263Z,69.90
2019-05-29T05:48:31.655Z,68.08
2019-05-29T05:51:00.035Z,67.80
2019-05-29T05:53:28.423Z,68.11
2019-05-29T05:55:56.804Z,67.71
2019-05-29T05:58:25.206Z,68.39
2019-05-29T06:00:53.585Z,68.54
2019-05-29T06:03:22.229Z,67.47
2019-05-29T06:05:50.653Z,66.43
2019-05-29T06:08:19.282Z,67.13
2019-05-29T06:10:50.606Z,67.40
2019-05-29T06:13:17.748Z,67.99
2019-05-29T06:15:46.138Z,67.81
2019-05-29T06:18:20.966Z,67.30
2019-05-29T06:20:44.955Z,68.39
2019-05-29T06:23:13.325Z,67.77
2019-05-29T06:25:42.446Z,65.41
2019-05-29T06:28:11.826Z,65.31
2019-05-29T06:30:41.247Z,65.90
2019-05-29T06:33:10.357Z,66.59
2019-05-29T06:35:39.732Z,67.54
2019-05-29T06:38:08.396Z,67.99
2019-05-29T06:40:45.024Z,68.39
2019-05-29T06:43:25.022Z,66.64
2019-05-29T06:45:54.566Z,64.97
2019-05-29T06:48:42.765Z,64.28
2019-05-29T06:50:59.900Z,64.24
2019-05-29T06:53:28.282Z,64.82
2019-05-29T06:55:58.080Z,64.81
2019-05-29T06:58:26.823Z,62.87
2019-05-29T07:00:55.574Z,63.48
2019-05-29T07:03:24.117Z,62.71
2019-05-29T07:05:53.086Z,60.99
2019-05-29T07:08:37.648Z,61.51
2019-05-29T07:10:51.949Z,61.93
2019-05-29T07:13:20.337Z,62.15
2019-05-29T07:15:48.776Z,62.68
2019-05-29T07:18:17.160Z,61.34
2019-05-29T07:20:45.590Z,60.83
2019-05-29T07:23:13.973Z,61.21
2019-05-29T07:25:43.035Z,59.58
2019-05-29T07:28:11.554Z,60.41
2019-05-29T07:30:42.766Z,59.20
2019-05-29T07:33:10.036Z,57.57
2019-05-29T07:35:39.264Z,54.22
2019-05-29T07:38:07.774Z,54.56
2019-05-29T07:40:36.173Z,54.06
2019-05-29T07:43:04.570Z,53.33
2019-05-29T07:45:33.018Z,54.26
2019-05-29T07:48:01.443Z,54.29
2019-05-29T07:50:30.111Z,53.39
2019-05-29T07:52:58.576Z,54.10
2019-05-29T07:55:26.976Z,53.40
2019-05-29T07:57:55.557Z,53.33
2019-05-29T08:00:34.722Z,53.67
2019-05-29T08:02:54.143Z,52.19
2019-05-29T08:05:22.527Z,51.47
2019-05-29T08:07:51.188Z,51.59
2019-05-29T08:10:21.685Z,49.60
2019-05-29T08:12:54.438Z,50.29
2019-05-29T08:15:20.428Z,49.66
2019-05-29T08:17:50.154Z,52.55
2019-05-29T08:20:18.962Z,52.45
2019-05-29T08:22:48.548Z,49.66
2019-05-29T08:25:29.932Z,49.13
2019-05-29T08:27:58.304Z,47.72
2019-05-29T08:30:26.759Z,46.73
2019-05-29T08:32:55.435Z,46.34
2019-05-29T08:35:24.127Z,45.06
2019-05-29T08:37:52.520Z,46.43
2019-05-29T08:40:21.508Z,45.89
2019-05-29T08:42:49.908Z,44.92
2019-05-29T08:45:18.896Z,46.52
2019-05-29T08:47:47.804Z,45.79
2019-05-29T08:50:18.499Z,44.48
2019-05-29T08:52:46.521Z,43.48
2019-05-29T08:55:15.050Z,42.38
2019-05-29T08:57:44.246Z,43.40
2019-05-29T09:00:13.654Z,42.83
2019-05-29T09:02:42.589Z,40.39
2019-05-29T09:05:11.486Z,40.53
2019-05-29T09:07:40.273Z,40.69
2019-05-29T09:10:09.101Z,40.78
2019-05-29T09:12:37.492Z,39.98
2019-05-29T09:15:10.236Z,38.79
2019-05-29T09:17:39.097Z,38.03
2019-05-29T09:20:25.505Z,37.93
2019-05-29T09:22:38.830Z,40.09
2019-05-29T09:25:07.795Z,38.13
2019-05-29T09:27:36.172Z,38.86
2019-05-29T09:30:06.189Z,35.98
2019-05-29T09:32:49.623Z,36.57
2019-05-29T09:35:05.664Z,36.21
2019-05-29T09:37:34.091Z,35.67
2019-05-29T09:40:02.471Z,37.37
2019-05-29T09:42:30.853Z,36.24
2019-05-29T09:44:59.528Z,34.66
2019-05-29T09:47:27.954Z,37.87
2019-05-29T09:49:56.338Z,34.46
2019-05-29T09:52:24.720Z,35.67
2019-05-29T09:54:54.614Z,36.32
2019-05-29T09:57:23.088Z,33.39
2019-05-29T09:59:53.841Z,32.44
2019-05-29T10:02:21.921Z,31.72
2019-05-29T10:04:50.328Z,32.55
2019-05-29T10:07:18.950Z,34.27
2019-05-29T10:09:47.333Z,32.17
2019-05-29T10:12:15.724Z,31.81
2019-05-29T10:14:44.123Z,34.25
2019-05-29T10:17:13.347Z,34.46
2019-05-29T10:19:41.816Z,33.62
2019-05-29T10:22:10.491Z,30.53
2019-05-29T10:24:38.895Z,33.07
2019-05-29T10:27:07.261Z,30.04
2019-05-29T10:29:35.649Z,29.47
2019-05-29T10:32:04.101Z,30.86
2019-05-29T10:34:32.494Z,29.01
2019-05-29T10:37:00.878Z,29.51
2019-05-29T10:39:29.523Z,29.32
2019-05-29T10:41:57.976Z,28.62
2019-05-29T10:44:26.662Z,31.87
2019-05-29T10:46:56.588Z,31.87
2019-05-29T10:49:25.652Z,30.64
2019-05-29T10:52:16.658Z,29.01
2019-05-29T10:54:41.071Z,28.77
2019-05-29T10:57:09.484Z,29.29
2019-05-29T10:59:37.870Z,30.69
2019-05-29T11:02:06.717Z,29.13
2019-05-29T11:04:35.113Z,29.95
2019-05-29T11:07:03.521Z,28.82
2019-05-29T11:09:44.100Z,27.84
2019-05-29T11:12:02.065Z,28.10
2019-05-29T11:14:30.462Z,27.06
2019-05-29T11:16:59.121Z,28.44
2019-05-29T11:19:27.493Z,28.60
2019-05-29T11:22:00.964Z,31.03
2019-05-29T11:24:26.021Z,30.83
2019-05-29T11:26:54.771Z,29.80
2019-05-29T11:29:23.186Z,29.54
2019-05-29T11:31:53.220Z,28.92
2019-05-29T11:34:21.783Z,26.72
2019-05-29T11:36:50.495Z,30.65
2019-05-29T11:39:18.884Z,27.46
2019-05-29T11:41:47.268Z,30.55
2019-05-29T11:44:15.681Z,26.90
2019-05-29T11:46:44.430Z,27.96
2019-05-29T11:49:12.802Z,25.91
2019-05-29T11:51:44.239Z,25.83
2019-05-29T11:54:11.604Z,25.59
2019-05-29T11:56:40.005Z,26.96
2019-05-29T11:59:08.388Z,25.12
2019-05-29T12:01:49.664Z,26.26
2019-05-29T12:04:23.116Z,27.40
2019-05-29T12:06:37.047Z,26.10
2019-05-29T12:09:08.336Z,25.96
2019-05-29T12:11:36.770Z,26.80
2019-05-29T12:14:05.559Z,27.73
2019-05-29T12:16:34.224Z,26.50
2019-05-29T12:19:02.603Z,27.88
2019-05-29T12:21:30.985Z,27.27
2019-05-29T12:24:02.563Z,29.05
2019-05-29T12:26:31.179Z,27.93
2019-05-29T12:29:08.444Z,27.05
2019-05-29T12:31:29.785Z,28.52
2019-05-29T12:34:04.633Z,29.01
2019-05-29T12:36:28.346Z,30.77
2019-05-29T12:38:57.842Z,29.74
2019-05-29T12:41:26.685Z,28.75
2019-05-29T12:43:55.315Z,27.63
2019-05-29T12:46:24.028Z,28.38
2019-05-29T12:48:53.430Z,28.73
2019-05-29T12:51:21.970Z,26.98
2019-05-29T12:53:50.383Z,28.37
2019-05-29T12:56:19.098Z,28.30
2019-05-29T12:58:47.479Z,28.80
2019-05-29T13:01:15.873Z,28.50
2019-05-29T13:03:45.949Z,29.46
2019-05-29T13:06:16.173Z,28.61
2019-05-29T13:08:44.574Z,27.50
2019-05-29T13:11:12.962Z,28.20
2019-05-29T13:13:41.425Z,29.16
2019-05-29T13:16:09.747Z,28.59
2019-05-29T13:18:38.137Z,28.80
2019-05-29T13:21:06.548Z,28.04
2019-05-29T13:23:44.736Z,27.87
2019-05-29T13:26:05.752Z,29.76
2019-05-29T13:28:34.435Z,29.26
2019-05-29T13:31:04.602Z,27.32
2019-05-29T13:33:32.934Z,27.78
2019-05-29T13:36:02.223Z,28.45
2019-05-29T13:38:30.739Z,27.73
2019-05-29T13:41:00.399Z,28.90
2019-05-29T13:43:28.822Z,28.47
2019-05-29T13:45:58.363Z,28.42
2019-05-29T13:48:26.886Z,28.90
2019-05-29T13:50:55.261Z,27.89
2019-05-29T13:53:23.664Z,28.30
2019-05-29T13:55:52.078Z,28.30
2019-05-29T13:58:20.463Z,27.28
2019-05-29T14:00:48.859Z,26.75
2019-05-29T14:03:17.521Z,27.63
2019-05-29T14:05:45.991Z,28.53
2019-05-29T14:08:14.383Z,30.74
2019-05-29T14:10:43.086Z,27.61
2019-05-29T14:13:11.488Z,31.15
2019-05-29T14:15:39.891Z,28.59
2019-05-29T14:18:09.105Z,28.38
2019-05-29T14:20:37.601Z,27.41
2019-05-29T14:23:07.351Z,27.59
2019-05-29T14:25:36.066Z,27.75
2019-05-29T14:28:04.595Z,27.79
2019-05-29T14:30:32.980Z,28.57
2019-05-29T14:33:02.316Z,27.60
2019-05-29T14:35:31.108Z,28.94
2019-05-29T14:37:59.541Z,29.27
2019-05-29T14:40:27.927Z,28.27
2019-05-29T14:42:56.391Z,29.67
2019-05-29T14:45:24.880Z,29.44
2019-05-29T14:47:53.489Z,28.92
2019-05-29T14:50:21.959Z,30.92
2019-05-29T14:52:50.361Z,30.36
2019-05-29T14:55:19.102Z,29.86
2019-05-29T14:57:47.739Z,28.80
2019-05-29T15:00:24.746Z,29.81
2019-05-29T15:02:46.878Z,30.20
2019-05-29T15:05:15.801Z,32.04
2019-05-29T15:07:44.438Z,29.93
2019-05-29T15:10:25.138Z,29.27
2019-05-29T15:12:43.142Z,29.40
2019-05-29T15:15:16.234Z,31.37
2019-05-29T15:17:43.390Z,28.82
2019-05-29T15:20:16.148Z,31.52
2019-05-29T15:22:43.500Z,29.59
2019-05-29T15:25:21.083Z,29.86
2019-05-29T15:27:42.685Z,29.82
2019-05-29T15:30:16.120Z,28.97
2019-05-29T15:32:42.099Z,29.79
2019-05-29T15:35:14.856Z,29.54
2019-05-29T15:37:41.811Z,29.43
2019-05-29T15:40:11.164Z,29.49
2019-05-29T15:42:39.520Z,31.58
2019-05-29T15:45:09.905Z,30.68
2019-05-29T15:47:38.320Z,29.07
2019-05-29T15:50:09.276Z,28.62
2019-05-29T15:52:37.794Z,28.68
2019-05-29T15:55:23.536Z,28.86
2019-05-29T15:57:38.787Z,28.57
2019-05-29T16:00:11.697Z,28.52
2019-05-29T16:02:40.146Z,28.97
2019-05-29T16:05:09.174Z,32.16
2019-05-29T16:07:37.562Z,29.74
2019-05-29T16:10:08.237Z,30.39
2019-05-29T16:12:36.665Z,29.35
2019-05-29T16:15:09.187Z,30.76
2019-05-29T16:17:37.577Z,30.52
2019-05-29T16:20:10.382Z,30.33
2019-05-29T16:22:38.923Z,30.24
2019-05-29T16:25:07.845Z,30.11
2019-05-29T16:27:36.241Z,31.25
2019-05-29T16:30:07.287Z,29.75
2019-05-29T16:32:35.934Z,29.84
2019-05-29T16:35:06.992Z,30.59
2019-05-29T16:37:35.374Z,30.88
2019-05-29T16:40:05.442Z,31.42
2019-05-29T16:42:34.106Z,30.91
2019-05-29T16:45:02.528Z,32.10
2019-05-29T16:47:30.947Z,31.10
2019-05-29T16:49:59.568Z,30.78
2019-05-29T16:52:27.972Z,30.87
2019-05-29T16:54:56.385Z,31.71
2019-05-29T16:57:25.017Z,30.86
2019-05-29T16:59:53.413Z,30.48
2019-05-29T17:02:22.133Z,30.69
2019-05-29T17:04:50.793Z,31.56
2019-05-29T17:07:20.085Z,31.37
2019-05-29T17:09:48.686Z,31.42
2019-05-29T17:12:18.174Z,31.88
2019-05-29T17:14:46.848Z,31.94
2019-05-29T17:17:16.496Z,31.46
2019-05-29T17:19:45.474Z,30.85
2019-05-29T17:22:14.590Z,30.85
2019-05-29T17:24:43.185Z,31.11
2019-05-29T17:27:11.558Z,31.94
2019-05-29T17:29:40.189Z,31.81
2019-05-29T17:32:08.600Z,30.83
2019-05-29T17:34:36.995Z,30.95
2019-05-29T17:37:05.474Z,30.88
2019-05-29T17:39:34.185Z,31.74
2019-05-29T17:42:02.583Z,31.91
2019-05-29T17:44:31.259Z,31.86
2019-05-29T17:46:59.661Z,33.85
2019-05-29T17:49:34.118Z,34.52
2019-05-29T17:51:58.217Z,34.59
2019-05-29T17:54:26.618Z,32.01
2019-05-29T17:56:55.082Z,31.63
2019-05-29T17:59:24.115Z,34.04
2019-05-29T18:01:52.611Z,32.91
2019-05-29T18:04:22.605Z,31.06
2019-05-29T18:06:51.192Z,31.96
2019-05-29T18:09:23.800Z,32.33
2019-05-29T18:11:49.734Z,32.04
2019-05-29T18:14:19.195Z,33.25
2019-05-29T18:16:47.915Z,34.43
2019-05-29T18:19:17.514Z,35.46
2019-05-29T18:21:46.526Z,36.41
2019-05-29T18:24:15.171Z,37.56
2019-05-29T18:26:47.169Z,38.35
2019-05-29T18:29:13.923Z,40.21
2019-05-29T18:31:42.342Z,40.54
2019-05-29T18:34:10.741Z,39.73
2019-05-29T18:36:39.437Z,39.41
2019-05-29T18:39:08.781Z,39.43
2019-05-29T18:41:37.412Z,39.36
2019-05-29T18:44:05.941Z,39.55
2019-05-29T18:46:37.943Z,39.88
2019-05-29T18:49:04.615Z,39.56
2019-05-29T18:51:33.269Z,39.74
2019-05-29T18:54:01.676Z,39.51
2019-05-29T18:56:30.645Z,39.52
2019-05-29T18:58:59.320Z,39.80
2019-05-29T19:01:27.703Z,40.06
2019-05-29T19:03:56.089Z,39.95
2019-05-29T19:06:25.571Z,40.00
2019-05-29T19:08:54.064Z,40.27
2019-05-29T19:11:23.703Z,40.46
2019-05-29T19:13:52.596Z,40.50
2019-05-29T19:16:21.813Z,41.32
2019-05-29T19:18:50.353Z,42.60
2019-05-29T19:21:18.763Z,43.06
2019-05-29T19:23:47.132Z,44.01
2019-05-29T19:26:15.519Z,44.76
2019-05-29T19:28:44.225Z,45.20
2019-05-29T19:31:12.610Z,45.64
2019-05-29T19:33:41.268Z,46.50
2019-05-29T19:36:09.974Z,46.55
2019-05-29T19:38:44.647Z,46.45
2019-05-29T19:41:13.312Z,46.72
2019-05-29T19:43:42.008Z,48.16
2019-05-29T19:46:10.668Z,48.38
2019-05-29T19:48:39.111Z,48.55
2019-05-29T19:51:07.582Z,47.99
2019-05-29T19:53:35.968Z,46.48
2019-05-29T19:56:04.585Z,46.43
2019-05-29T19:58:33.902Z,46.71
2019-05-29T20:01:02.703Z,46.58
2019-05-29T20:03:31.080Z,46.75
2019-05-29T20:05:59.452Z,46.30
2019-05-29T20:08:32.586Z,46.21
2019-05-29T20:10:58.613Z,46.61
2019-05-29T20:13:27.630Z,46.60
2019-05-29T20:15:56.028Z,46.67
2019-05-29T20:18:24.393Z,46.28
2019-05-29T20:20:52.774Z,46.63
2019-05-29T20:23:21.426Z,46.49
2019-05-29T20:25:49.815Z,45.92
2019-05-29T20:28:18.217Z,45.98
2019-05-29T20:30:46.596Z,46.65
2019-05-29T20:33:15.180Z,47.07
2019-05-29T20:35:43.596Z,47.33
2019-05-29T20:38:12.051Z,47.24
2019-05-29T20:40:41.374Z,47.78
2019-05-29T20:43:09.860Z,47.58
2019-05-29T20:45:39.746Z,47.55
2019-05-29T20:48:08.295Z,48.33
2019-05-29T20:50:37.088Z,49.19
2019-05-29T20:53:05.590Z,49.72
2019-05-29T20:55:33.976Z,49.84
2019-05-29T20:58:02.643Z,49.82
2019-05-29T21:00:31.933Z,49.06
2019-05-29T21:03:00.341Z,48.70
2019-05-29T21:05:28.731Z,48.77
2019-05-29T21:07:57.126Z,49.07
2019-05-29T21:10:25.503Z,49.36
2019-05-29T21:12:53.918Z,49.83
2019-05-29T21:15:22.340Z,49.88
2019-05-29T21:17:50.829Z,49.55
2019-05-29T21:20:19.362Z,49.32
2019-05-29T21:22:47.754Z,49.19
2019-05-29T21:25:19.093Z,49.73
2019-05-29T21:27:49.096Z,49.71
2019-05-29T21:30:19.599Z,50.13
2019-05-29T21:32:48.013Z,50.43
2019-05-29T21:35:16.680Z,50.85
2019-05-29T21:37:46.520Z,50.94
2019-05-29T21:40:15.289Z,51.22
2019-05-29T21:42:44.867Z,51.25
2019-05-29T21:45:14.198Z,51.31
2019-05-29T21:47:43.543Z,51.40
2019-05-29T21:50:12.453Z,51.66
2019-05-29T21:52:41.492Z,51.94
2019-05-29T21:55:11.870Z,52.36
2019-05-29T21:57:43.923Z,52.58
2019-05-29T22:00:16.320Z,52.05
2019-05-29T22:02:44.780Z,51.86
2019-05-29T22:05:13.478Z,52.12
2019-05-29T22:07:42.771Z,52.02
2019-05-29T22:10:12.348Z,52.26
2019-05-29T22:12:40.743Z,52.28
2019-05-29T22:15:09.572Z,52.48
2019-05-29T22:17:37.980Z,52.70
2019-05-29T22:20:07.556Z,53.05
2019-05-29T22:22:35.934Z,53.31
2019-05-29T22:25:06.990Z,53.78
2019-05-29T22:27:35.756Z,54.07
2019-05-29T22:30:05.879Z,54.24
2019-05-29T22:32:34.285Z,54.74
2019-05-29T22:35:02.849Z,55.15
2019-05-29T22:37:31.264Z,55.17
2019-05-29T22:39:59.745Z,55.42
2019-05-29T22:42:28.407Z,55.63
2019-05-29T22:44:57.728Z,55.77
2019-05-29T22:47:26.296Z,56.02
2019-05-29T22:49:55.778Z,56.28
2019-05-29T22:52:24.212Z,56.21
2019-05-29T22:54:53.696Z,56.35
2019-05-29T22:57:22.377Z,56.17
2019-05-29T22:59:51.831Z,56.06
2019-05-29T23:02:20.536Z,56.40
2019-05-29T23:04:49.150Z,56.62
2019-05-29T23:07:17.550Z,56.77
2019-05-29T23:09:45.939Z,56.53
2019-05-29T23:12:14.411Z,55.83
2019-05-29T23:14:42.813Z,55.51
2019-05-29T23:17:11.208Z,55.77
2019-05-29T23:19:39.598Z,55.70
2019-05-29T23:22:08.075Z,55.57
2019-05-29T23:24:36.524Z,55.38
2019-05-29T23:27:05.081Z,55.34
2019-05-29T23:29:47.941Z,55.41
2019-05-29T23:32:03.586Z,55.65
2019-05-29T23:34:32.008Z,55.34
2019-05-29T23:37:01.295Z,54.86
2019-05-29T23:39:29.822Z,54.57
2019-05-29T23:41:59.314Z,54.87
2019-05-29T23:44:27.865Z,54.71
2019-05-29T23:46:57.526Z,55.04
2019-05-29T23:49:26.051Z,55.28
2019-05-29T23:51:55.462Z,55.30
2019-05-29T23:54:23.898Z,55.31
2019-05-29T23:56:53.772Z,55.40
2019-05-29T23:59:22.255Z,55.14
